<?xml version="1.0" encoding="UTF-8" standalone="no" ?>
<gpx xmlns="http://www.topografix.com/GPX/1/1" xmlns:xsi="http://www.w3.org/2001/XMLSchema-instance" xsi:schemaLocation="http://www.topografix.com/GPX/1/1 http://www.topografix.com/GPX/1/1/gpx.xsd" version="1.1" creator="VisuGPX - https://www.visugpx.com">
  <metadata>
    <name>Aber Ildut</name>
    <desc><![CDATA[Rando aber Ildut]]></desc>
  </metadata>
  <trk>
    <name><![CDATA[L'aber Ildut]]></name>
    <trkseg>
      <trkpt lat="48.47706" lon="-4.72412">
        <ele>17</ele>
        <time>2007-03-21T09:28:29Z</time>
      </trkpt>
      <trkpt lat="48.47718" lon="-4.72442">
        <ele>13</ele>
        <time>2007-03-21T09:32:19Z</time>
      </trkpt>
      <trkpt lat="48.47738" lon="-4.72503">
        <ele>10</ele>
        <time>2007-03-21T09:32:56Z</time>
      </trkpt>
      <trkpt lat="48.47759" lon="-4.72537">
        <ele>11</ele>
        <time>2007-03-21T09:33:26Z</time>
      </trkpt>
      <trkpt lat="48.47763" lon="-4.72537">
        <ele>11</ele>
        <time>2007-03-21T09:33:55Z</time>
      </trkpt>
      <trkpt lat="48.47784" lon="-4.72552">
        <ele>12</ele>
        <time>2007-03-21T09:34:30Z</time>
      </trkpt>
      <trkpt lat="48.4779" lon="-4.72556">
        <ele>13</ele>
        <time>2007-03-21T09:34:59Z</time>
      </trkpt>
      <trkpt lat="48.47814" lon="-4.72562">
        <ele>14</ele>
        <time>2007-03-21T09:35:49Z</time>
      </trkpt>
      <trkpt lat="48.4785" lon="-4.72588">
        <ele>17</ele>
        <time>2007-03-21T09:36:22Z</time>
      </trkpt>
      <trkpt lat="48.47871" lon="-4.726">
        <ele>18</ele>
        <time>2007-03-21T09:36:35Z</time>
      </trkpt>
      <trkpt lat="48.47878" lon="-4.72615">
        <ele>19</ele>
        <time>2007-03-21T09:36:43Z</time>
      </trkpt>
      <trkpt lat="48.47882" lon="-4.72621">
        <ele>19</ele>
        <time>2007-03-21T09:37:23Z</time>
      </trkpt>
      <trkpt lat="48.4794" lon="-4.7275">
        <ele>29</ele>
        <time>2007-03-21T09:39:55Z</time>
      </trkpt>
      <trkpt lat="48.47975" lon="-4.72827">
        <ele>33</ele>
        <time>2007-03-21T09:40:34Z</time>
      </trkpt>
      <trkpt lat="48.48016" lon="-4.72896">
        <ele>36</ele>
        <time>2007-03-21T09:41:11Z</time>
      </trkpt>
      <trkpt lat="48.4803" lon="-4.72948">
        <ele>39</ele>
        <time>2007-03-21T09:41:42Z</time>
      </trkpt>
      <trkpt lat="48.48039" lon="-4.72967">
        <ele>39</ele>
        <time>2007-03-21T09:41:52Z</time>
      </trkpt>
      <trkpt lat="48.48034" lon="-4.73007">
        <ele>40</ele>
        <time>2007-03-21T09:42:09Z</time>
      </trkpt>
      <trkpt lat="48.48034" lon="-4.73037">
        <ele>41</ele>
        <time>2007-03-21T09:42:22Z</time>
      </trkpt>
      <trkpt lat="48.48041" lon="-4.73156">
        <ele>42</ele>
        <time>2007-03-21T09:43:16Z</time>
      </trkpt>
      <trkpt lat="48.48044" lon="-4.73187">
        <ele>42</ele>
        <time>2007-03-21T09:43:31Z</time>
      </trkpt>
      <trkpt lat="48.48038" lon="-4.73239">
        <ele>44</ele>
        <time>2007-03-21T09:43:53Z</time>
      </trkpt>
      <trkpt lat="48.48007" lon="-4.73247">
        <ele>43</ele>
        <time>2007-03-21T09:44:10Z</time>
      </trkpt>
      <trkpt lat="48.47951" lon="-4.7324">
        <ele>41</ele>
        <time>2007-03-21T09:44:54Z</time>
      </trkpt>
      <trkpt lat="48.47918" lon="-4.73272">
        <ele>41</ele>
        <time>2007-03-21T09:45:22Z</time>
      </trkpt>
      <trkpt lat="48.47907" lon="-4.73288">
        <ele>41</ele>
        <time>2007-03-21T09:45:33Z</time>
      </trkpt>
      <trkpt lat="48.47884" lon="-4.73324">
        <ele>40</ele>
        <time>2007-03-21T09:45:56Z</time>
      </trkpt>
      <trkpt lat="48.4787" lon="-4.7337">
        <ele>38</ele>
        <time>2007-03-21T09:46:23Z</time>
      </trkpt>
      <trkpt lat="48.47828" lon="-4.7347">
        <ele>34</ele>
        <time>2007-03-21T09:47:17Z</time>
      </trkpt>
      <trkpt lat="48.47804" lon="-4.7352">
        <ele>32</ele>
        <time>2007-03-21T09:47:50Z</time>
      </trkpt>
      <trkpt lat="48.47762" lon="-4.73579">
        <ele>28</ele>
        <time>2007-03-21T09:48:30Z</time>
      </trkpt>
      <trkpt lat="48.4775" lon="-4.73601">
        <ele>27</ele>
        <time>2007-03-21T09:48:46Z</time>
      </trkpt>
      <trkpt lat="48.47729" lon="-4.7362">
        <ele>25</ele>
        <time>2007-03-21T09:49:04Z</time>
      </trkpt>
      <trkpt lat="48.47703" lon="-4.73667">
        <ele>21</ele>
        <time>2007-03-21T09:49:33Z</time>
      </trkpt>
      <trkpt lat="48.47706" lon="-4.73688">
        <ele>20</ele>
        <time>2007-03-21T09:49:43Z</time>
      </trkpt>
      <trkpt lat="48.47706" lon="-4.73718">
        <ele>19</ele>
        <time>2007-03-21T09:50:05Z</time>
      </trkpt>
      <trkpt lat="48.47694" lon="-4.73722">
        <ele>19</ele>
        <time>2007-03-21T09:50:15Z</time>
      </trkpt>
      <trkpt lat="48.47687" lon="-4.73747">
        <ele>18</ele>
        <time>2007-03-21T09:50:25Z</time>
      </trkpt>
      <trkpt lat="48.47687" lon="-4.73781">
        <ele>20</ele>
        <time>2007-03-21T09:50:46Z</time>
      </trkpt>
      <trkpt lat="48.47699" lon="-4.7381">
        <ele>22</ele>
        <time>2007-03-21T09:51:23Z</time>
      </trkpt>
      <trkpt lat="48.47725" lon="-4.73917">
        <ele>26</ele>
        <time>2007-03-21T09:52:23Z</time>
      </trkpt>
      <trkpt lat="48.47714" lon="-4.73996">
        <ele>27</ele>
        <time>2007-03-21T09:52:59Z</time>
      </trkpt>
      <trkpt lat="48.47718" lon="-4.74049">
        <ele>27</ele>
        <time>2007-03-21T09:53:25Z</time>
      </trkpt>
      <trkpt lat="48.47724" lon="-4.74094">
        <ele>27</ele>
        <time>2007-03-21T09:53:52Z</time>
      </trkpt>
      <trkpt lat="48.47721" lon="-4.74213">
        <ele>22</ele>
        <time>2007-03-21T09:54:50Z</time>
      </trkpt>
      <trkpt lat="48.47711" lon="-4.74318">
        <ele>23</ele>
        <time>2007-03-21T09:55:41Z</time>
      </trkpt>
      <trkpt lat="48.47692" lon="-4.74384">
        <ele>25</ele>
        <time>2007-03-21T09:56:16Z</time>
      </trkpt>
      <trkpt lat="48.47711" lon="-4.74436">
        <ele>26</ele>
        <time>2007-03-21T09:56:52Z</time>
      </trkpt>
      <trkpt lat="48.47756" lon="-4.74412">
        <ele>28</ele>
        <time>2007-03-21T09:57:26Z</time>
      </trkpt>
      <trkpt lat="48.47835" lon="-4.74394">
        <ele>33</ele>
        <time>2007-03-21T09:58:28Z</time>
      </trkpt>
      <trkpt lat="48.47937" lon="-4.74403">
        <ele>39</ele>
        <time>2007-03-21T09:59:39Z</time>
      </trkpt>
      <trkpt lat="48.47986" lon="-4.74401">
        <ele>41</ele>
        <time>2007-03-21T10:00:15Z</time>
      </trkpt>
      <trkpt lat="48.48066" lon="-4.74369">
        <ele>44</ele>
        <time>2007-03-21T10:01:13Z</time>
      </trkpt>
      <trkpt lat="48.48073" lon="-4.74386">
        <ele>45</ele>
        <time>2007-03-21T10:01:24Z</time>
      </trkpt>
      <trkpt lat="48.48092" lon="-4.7452">
        <ele>45</ele>
        <time>2007-03-21T10:02:29Z</time>
      </trkpt>
      <trkpt lat="48.48104" lon="-4.74557">
        <ele>44</ele>
        <time>2007-03-21T10:02:58Z</time>
      </trkpt>
      <trkpt lat="48.48121" lon="-4.74624">
        <ele>43</ele>
        <time>2007-03-21T10:03:33Z</time>
      </trkpt>
      <trkpt lat="48.48133" lon="-4.74668">
        <ele>39</ele>
        <time>2007-03-21T10:03:57Z</time>
      </trkpt>
      <trkpt lat="48.4815" lon="-4.74716">
        <ele>33</ele>
        <time>2007-03-21T10:04:29Z</time>
      </trkpt>
      <trkpt lat="48.48158" lon="-4.74733">
        <ele>32</ele>
        <time>2007-03-21T10:04:56Z</time>
      </trkpt>
      <trkpt lat="48.48156" lon="-4.74767">
        <ele>30</ele>
        <time>2007-03-21T10:05:31Z</time>
      </trkpt>
      <trkpt lat="48.48145" lon="-4.74813">
        <ele>35</ele>
        <time>2007-03-21T10:05:55Z</time>
      </trkpt>
      <trkpt lat="48.48167" lon="-4.74865">
        <ele>39</ele>
        <time>2007-03-21T10:06:26Z</time>
      </trkpt>
      <trkpt lat="48.48174" lon="-4.74889">
        <ele>40</ele>
        <time>2007-03-21T10:06:54Z</time>
      </trkpt>
      <trkpt lat="48.48179" lon="-4.74934">
        <ele>41</ele>
        <time>2007-03-21T10:07:21Z</time>
      </trkpt>
      <trkpt lat="48.48225" lon="-4.75166">
        <ele>41</ele>
        <time>2007-03-21T10:09:20Z</time>
      </trkpt>
      <trkpt lat="48.48238" lon="-4.75248">
        <ele>40</ele>
        <time>2007-03-21T10:09:59Z</time>
      </trkpt>
      <trkpt lat="48.48288" lon="-4.75368">
        <ele>40</ele>
        <time>2007-03-21T10:11:05Z</time>
      </trkpt>
      <trkpt lat="48.48358" lon="-4.75458">
        <ele>38</ele>
        <time>2007-03-21T10:12:09Z</time>
      </trkpt>
      <trkpt lat="48.48372" lon="-4.75454">
        <ele>38</ele>
        <time>2007-03-21T10:12:24Z</time>
      </trkpt>
      <trkpt lat="48.48389" lon="-4.75448">
        <ele>38</ele>
        <time>2007-03-21T10:12:56Z</time>
      </trkpt>
      <trkpt lat="48.48403" lon="-4.75447">
        <ele>38</ele>
        <time>2007-03-21T10:13:17Z</time>
      </trkpt>
      <trkpt lat="48.48457" lon="-4.75431">
        <ele>39</ele>
        <time>2007-03-21T10:14:00Z</time>
      </trkpt>
      <trkpt lat="48.48502" lon="-4.75437">
        <ele>40</ele>
        <time>2007-03-21T10:14:33Z</time>
      </trkpt>
      <trkpt lat="48.48594" lon="-4.75464">
        <ele>39</ele>
        <time>2007-03-21T10:15:38Z</time>
      </trkpt>
      <trkpt lat="48.48616" lon="-4.75418">
        <ele>39</ele>
        <time>2007-03-21T10:16:05Z</time>
      </trkpt>
      <trkpt lat="48.48649" lon="-4.75379">
        <ele>39</ele>
        <time>2007-03-21T10:16:40Z</time>
      </trkpt>
      <trkpt lat="48.48653" lon="-4.75384">
        <ele>39</ele>
        <time>2007-03-21T10:16:44Z</time>
      </trkpt>
      <trkpt lat="48.48659" lon="-4.75404">
        <ele>39</ele>
        <time>2007-03-21T10:16:59Z</time>
      </trkpt>
      <trkpt lat="48.48674" lon="-4.75463">
        <ele>38</ele>
        <time>2007-03-21T10:17:30Z</time>
      </trkpt>
      <trkpt lat="48.48699" lon="-4.75526">
        <ele>37</ele>
        <time>2007-03-21T10:17:58Z</time>
      </trkpt>
      <trkpt lat="48.48723" lon="-4.75561">
        <ele>36</ele>
        <time>2007-03-21T10:18:21Z</time>
      </trkpt>
      <trkpt lat="48.48728" lon="-4.75566">
        <ele>36</ele>
        <time>2007-03-21T10:18:31Z</time>
      </trkpt>
      <trkpt lat="48.48726" lon="-4.7559">
        <ele>35</ele>
        <time>2007-03-21T10:18:42Z</time>
      </trkpt>
      <trkpt lat="48.48745" lon="-4.75647">
        <ele>33</ele>
        <time>2007-03-21T10:19:10Z</time>
      </trkpt>
      <trkpt lat="48.48767" lon="-4.75696">
        <ele>31</ele>
        <time>2007-03-21T10:19:40Z</time>
      </trkpt>
      <trkpt lat="48.48792" lon="-4.75711">
        <ele>32</ele>
        <time>2007-03-21T10:20:00Z</time>
      </trkpt>
      <trkpt lat="48.48812" lon="-4.75687">
        <ele>32</ele>
        <time>2007-03-21T10:20:17Z</time>
      </trkpt>
      <trkpt lat="48.48833" lon="-4.75715">
        <ele>33</ele>
        <time>2007-03-21T10:20:45Z</time>
      </trkpt>
      <trkpt lat="48.48884" lon="-4.75797">
        <ele>34</ele>
        <time>2007-03-21T10:21:44Z</time>
      </trkpt>
      <trkpt lat="48.48892" lon="-4.75807">
        <ele>34</ele>
        <time>2007-03-21T10:22:04Z</time>
      </trkpt>
      <trkpt lat="48.48919" lon="-4.75837">
        <ele>33</ele>
        <time>2007-03-21T10:22:31Z</time>
      </trkpt>
      <trkpt lat="48.48931" lon="-4.75849">
        <ele>33</ele>
        <time>2007-03-21T10:23:00Z</time>
      </trkpt>
      <trkpt lat="48.48938" lon="-4.7587">
        <ele>33</ele>
        <time>2007-03-21T10:26:31Z</time>
      </trkpt>
      <trkpt lat="48.48939" lon="-4.75887">
        <ele>32</ele>
        <time>2007-03-21T10:26:54Z</time>
      </trkpt>
      <trkpt lat="48.48943" lon="-4.759">
        <ele>32</ele>
        <time>2007-03-21T10:27:18Z</time>
      </trkpt>
      <trkpt lat="48.48968" lon="-4.76019">
        <ele>28</ele>
        <time>2007-03-21T10:28:48Z</time>
      </trkpt>
      <trkpt lat="48.48976" lon="-4.76042">
        <ele>28</ele>
        <time>2007-03-21T10:29:11Z</time>
      </trkpt>
      <trkpt lat="48.48996" lon="-4.7611">
        <ele>26</ele>
        <time>2007-03-21T10:29:54Z</time>
      </trkpt>
      <trkpt lat="48.49019" lon="-4.76161">
        <ele>24</ele>
        <time>2007-03-21T10:30:36Z</time>
      </trkpt>
      <trkpt lat="48.4906" lon="-4.76151">
        <ele>22</ele>
        <time>2007-03-21T10:31:09Z</time>
      </trkpt>
      <trkpt lat="48.49117" lon="-4.7611">
        <ele>25</ele>
        <time>2007-03-21T10:31:56Z</time>
      </trkpt>
      <trkpt lat="48.49172" lon="-4.76107">
        <ele>24</ele>
        <time>2007-03-21T10:32:34Z</time>
      </trkpt>
      <trkpt lat="48.49215" lon="-4.76117">
        <ele>23</ele>
        <time>2007-03-21T10:33:08Z</time>
      </trkpt>
      <trkpt lat="48.49236" lon="-4.76169">
        <ele>24</ele>
        <time>2007-03-21T10:33:41Z</time>
      </trkpt>
      <trkpt lat="48.49262" lon="-4.76187">
        <ele>26</ele>
        <time>2007-03-21T10:34:05Z</time>
      </trkpt>
      <trkpt lat="48.49332" lon="-4.76181">
        <ele>30</ele>
        <time>2007-03-21T10:34:55Z</time>
      </trkpt>
      <trkpt lat="48.49362" lon="-4.76146">
        <ele>30</ele>
        <time>2007-03-21T10:35:30Z</time>
      </trkpt>
      <trkpt lat="48.49438" lon="-4.7612">
        <ele>31</ele>
        <time>2007-03-21T10:36:30Z</time>
      </trkpt>
      <trkpt lat="48.49432" lon="-4.76139">
        <ele>31</ele>
        <time>2007-03-21T10:36:48Z</time>
      </trkpt>
      <trkpt lat="48.49452" lon="-4.76158">
        <ele>31</ele>
        <time>2007-03-21T10:37:11Z</time>
      </trkpt>
      <trkpt lat="48.49486" lon="-4.76159">
        <ele>31</ele>
        <time>2007-03-21T10:37:45Z</time>
      </trkpt>
      <trkpt lat="48.49517" lon="-4.7616">
        <ele>30</ele>
        <time>2007-03-21T10:38:23Z</time>
      </trkpt>
      <trkpt lat="48.4952" lon="-4.76162">
        <ele>30</ele>
        <time>2007-03-21T10:38:59Z</time>
      </trkpt>
      <trkpt lat="48.4952" lon="-4.76163">
        <ele>30</ele>
        <time>2007-03-21T10:39:18Z</time>
      </trkpt>
      <trkpt lat="48.49511" lon="-4.76159">
        <ele>30</ele>
        <time>2007-03-21T10:39:37Z</time>
      </trkpt>
      <trkpt lat="48.49502" lon="-4.7617">
        <ele>30</ele>
        <time>2007-03-21T10:40:00Z</time>
      </trkpt>
      <trkpt lat="48.49498" lon="-4.76187">
        <ele>30</ele>
        <time>2007-03-21T10:40:32Z</time>
      </trkpt>
      <trkpt lat="48.49514" lon="-4.76225">
        <ele>29</ele>
        <time>2007-03-21T10:41:22Z</time>
      </trkpt>
      <trkpt lat="48.49535" lon="-4.76282">
        <ele>28</ele>
        <time>2007-03-21T10:42:00Z</time>
      </trkpt>
      <trkpt lat="48.49546" lon="-4.76302">
        <ele>27</ele>
        <time>2007-03-21T10:42:30Z</time>
      </trkpt>
      <trkpt lat="48.49534" lon="-4.76263">
        <ele>28</ele>
        <time>2007-03-21T10:43:02Z</time>
      </trkpt>
      <trkpt lat="48.49542" lon="-4.76263">
        <ele>28</ele>
        <time>2007-03-21T10:43:48Z</time>
      </trkpt>
      <trkpt lat="48.49553" lon="-4.76264">
        <ele>28</ele>
        <time>2007-03-21T10:44:21Z</time>
      </trkpt>
      <trkpt lat="48.49551" lon="-4.76288">
        <ele>27</ele>
        <time>2007-03-21T10:44:50Z</time>
      </trkpt>
      <trkpt lat="48.49544" lon="-4.76328">
        <ele>27</ele>
        <time>2007-03-21T10:45:26Z</time>
      </trkpt>
      <trkpt lat="48.49548" lon="-4.76377">
        <ele>27</ele>
        <time>2007-03-21T10:46:00Z</time>
      </trkpt>
      <trkpt lat="48.49573" lon="-4.76441">
        <ele>28</ele>
        <time>2007-03-21T10:46:43Z</time>
      </trkpt>
      <trkpt lat="48.49585" lon="-4.76431">
        <ele>29</ele>
        <time>2007-03-21T10:47:04Z</time>
      </trkpt>
      <trkpt lat="48.4959" lon="-4.76348">
        <ele>29</ele>
        <time>2007-03-21T10:47:52Z</time>
      </trkpt>
      <trkpt lat="48.49608" lon="-4.76296">
        <ele>29</ele>
        <time>2007-03-21T10:48:29Z</time>
      </trkpt>
      <trkpt lat="48.49611" lon="-4.76273">
        <ele>29</ele>
        <time>2007-03-21T10:48:52Z</time>
      </trkpt>
      <trkpt lat="48.49649" lon="-4.76215">
        <ele>30</ele>
        <time>2007-03-21T10:50:00Z</time>
      </trkpt>
      <trkpt lat="48.49658" lon="-4.76218">
        <ele>31</ele>
        <time>2007-03-21T10:50:29Z</time>
      </trkpt>
      <trkpt lat="48.49661" lon="-4.76172">
        <ele>30</ele>
        <time>2007-03-21T10:51:05Z</time>
      </trkpt>
      <trkpt lat="48.49658" lon="-4.76154">
        <ele>30</ele>
        <time>2007-03-21T10:51:22Z</time>
      </trkpt>
      <trkpt lat="48.49666" lon="-4.76156">
        <ele>30</ele>
        <time>2007-03-21T10:51:45Z</time>
      </trkpt>
      <trkpt lat="48.49701" lon="-4.76118">
        <ele>31</ele>
        <time>2007-03-21T10:52:18Z</time>
      </trkpt>
      <trkpt lat="48.49717" lon="-4.76056">
        <ele>32</ele>
        <time>2007-03-21T10:52:53Z</time>
      </trkpt>
      <trkpt lat="48.49752" lon="-4.76012">
        <ele>34</ele>
        <time>2007-03-21T10:53:32Z</time>
      </trkpt>
      <trkpt lat="48.49784" lon="-4.76056">
        <ele>35</ele>
        <time>2007-03-21T10:54:05Z</time>
      </trkpt>
      <trkpt lat="48.49823" lon="-4.76105">
        <ele>36</ele>
        <time>2007-03-21T10:54:43Z</time>
      </trkpt>
      <trkpt lat="48.4984" lon="-4.76136">
        <ele>36</ele>
        <time>2007-03-21T10:54:57Z</time>
      </trkpt>
      <trkpt lat="48.49846" lon="-4.7615">
        <ele>36</ele>
        <time>2007-03-21T10:55:03Z</time>
      </trkpt>
      <trkpt lat="48.49856" lon="-4.76158">
        <ele>37</ele>
        <time>2007-03-21T10:55:10Z</time>
      </trkpt>
      <trkpt lat="48.49873" lon="-4.762">
        <ele>37</ele>
        <time>2007-03-21T10:55:49Z</time>
      </trkpt>
      <trkpt lat="48.49869" lon="-4.7622">
        <ele>37</ele>
        <time>2007-03-21T10:56:15Z</time>
      </trkpt>
      <trkpt lat="48.4988" lon="-4.76285">
        <ele>38</ele>
        <time>2007-03-21T10:56:51Z</time>
      </trkpt>
      <trkpt lat="48.49908" lon="-4.76353">
        <ele>37</ele>
        <time>2007-03-21T10:57:30Z</time>
      </trkpt>
      <trkpt lat="48.49933" lon="-4.76404">
        <ele>37</ele>
        <time>2007-03-21T10:58:01Z</time>
      </trkpt>
      <trkpt lat="48.4993" lon="-4.76494">
        <ele>36</ele>
        <time>2007-03-21T10:58:54Z</time>
      </trkpt>
      <trkpt lat="48.49948" lon="-4.76553">
        <ele>34</ele>
        <time>2007-03-21T10:59:32Z</time>
      </trkpt>
      <trkpt lat="48.4997" lon="-4.76601">
        <ele>33</ele>
        <time>2007-03-21T11:00:01Z</time>
      </trkpt>
      <trkpt lat="48.49988" lon="-4.76647">
        <ele>31</ele>
        <time>2007-03-21T11:00:31Z</time>
      </trkpt>
      <trkpt lat="48.5002" lon="-4.76691">
        <ele>30</ele>
        <time>2007-03-21T11:01:04Z</time>
      </trkpt>
      <trkpt lat="48.50045" lon="-4.76712">
        <ele>29</ele>
        <time>2007-03-21T11:01:28Z</time>
      </trkpt>
      <trkpt lat="48.50066" lon="-4.76728">
        <ele>29</ele>
        <time>2007-03-21T11:01:57Z</time>
      </trkpt>
      <trkpt lat="48.50067" lon="-4.76743">
        <ele>29</ele>
        <time>2007-03-21T11:02:25Z</time>
      </trkpt>
      <trkpt lat="48.50061" lon="-4.76794">
        <ele>29</ele>
        <time>2007-03-21T11:02:51Z</time>
      </trkpt>
      <trkpt lat="48.5003" lon="-4.76842">
        <ele>29</ele>
        <time>2007-03-21T11:03:27Z</time>
      </trkpt>
      <trkpt lat="48.50021" lon="-4.76905">
        <ele>29</ele>
        <time>2007-03-21T11:04:01Z</time>
      </trkpt>
      <trkpt lat="48.50005" lon="-4.76919">
        <ele>29</ele>
        <time>2007-03-21T11:04:22Z</time>
      </trkpt>
      <trkpt lat="48.49993" lon="-4.76924">
        <ele>29</ele>
        <time>2007-03-21T11:04:35Z</time>
      </trkpt>
      <trkpt lat="48.49954" lon="-4.76929">
        <ele>28</ele>
        <time>2007-03-21T11:05:05Z</time>
      </trkpt>
      <trkpt lat="48.49906" lon="-4.76947">
        <ele>26</ele>
        <time>2007-03-21T11:05:44Z</time>
      </trkpt>
      <trkpt lat="48.49874" lon="-4.76982">
        <ele>24</ele>
        <time>2007-03-21T11:06:15Z</time>
      </trkpt>
      <trkpt lat="48.49806" lon="-4.77061">
        <ele>20</ele>
        <time>2007-03-21T11:07:17Z</time>
      </trkpt>
      <trkpt lat="48.49769" lon="-4.77114">
        <ele>18</ele>
        <time>2007-03-21T11:07:53Z</time>
      </trkpt>
      <trkpt lat="48.49739" lon="-4.77143">
        <ele>17</ele>
        <time>2007-03-21T11:08:21Z</time>
      </trkpt>
      <trkpt lat="48.49741" lon="-4.77183">
        <ele>16</ele>
        <time>2007-03-21T11:08:42Z</time>
      </trkpt>
      <trkpt lat="48.4975" lon="-4.77192">
        <ele>16</ele>
        <time>2007-03-21T11:09:06Z</time>
      </trkpt>
      <trkpt lat="48.49754" lon="-4.77242">
        <ele>17</ele>
        <time>2007-03-21T11:09:47Z</time>
      </trkpt>
      <trkpt lat="48.49803" lon="-4.77377">
        <ele>22</ele>
        <time>2007-03-21T11:11:31Z</time>
      </trkpt>
      <trkpt lat="48.49817" lon="-4.77398">
        <ele>22</ele>
        <time>2007-03-21T11:11:56Z</time>
      </trkpt>
      <trkpt lat="48.49813" lon="-4.77408">
        <ele>22</ele>
        <time>2007-03-21T11:12:10Z</time>
      </trkpt>
      <trkpt lat="48.49825" lon="-4.77434">
        <ele>22</ele>
        <time>2007-03-21T11:12:29Z</time>
      </trkpt>
      <trkpt lat="48.49848" lon="-4.77462">
        <ele>23</ele>
        <time>2007-03-21T11:13:00Z</time>
      </trkpt>
      <trkpt lat="48.49865" lon="-4.77473">
        <ele>23</ele>
        <time>2007-03-21T11:13:16Z</time>
      </trkpt>
      <trkpt lat="48.49932" lon="-4.77499">
        <ele>22</ele>
        <time>2007-03-21T11:14:04Z</time>
      </trkpt>
      <trkpt lat="48.49949" lon="-4.77514">
        <ele>22</ele>
        <time>2007-03-21T11:14:18Z</time>
      </trkpt>
      <trkpt lat="48.49992" lon="-4.77536">
        <ele>20</ele>
        <time>2007-03-21T11:14:53Z</time>
      </trkpt>
      <trkpt lat="48.50034" lon="-4.77543">
        <ele>19</ele>
        <time>2007-03-21T11:15:22Z</time>
      </trkpt>
      <trkpt lat="48.50044" lon="-4.77552">
        <ele>18</ele>
        <time>2007-03-21T11:15:35Z</time>
      </trkpt>
      <trkpt lat="48.50049" lon="-4.77573">
        <ele>15</ele>
        <time>2007-03-21T11:15:51Z</time>
      </trkpt>
      <trkpt lat="48.5002" lon="-4.77592">
        <ele>15</ele>
        <time>2007-03-21T11:16:20Z</time>
      </trkpt>
      <trkpt lat="48.4996" lon="-4.77713">
        <ele>8</ele>
        <time>2007-03-21T11:17:35Z</time>
      </trkpt>
      <trkpt lat="48.49922" lon="-4.77755">
        <ele>11</ele>
        <time>2007-03-21T11:18:12Z</time>
      </trkpt>
      <trkpt lat="48.49905" lon="-4.77767">
        <ele>11</ele>
        <time>2007-03-21T11:18:25Z</time>
      </trkpt>
      <trkpt lat="48.49889" lon="-4.77827">
        <ele>6</ele>
        <time>2007-03-21T11:18:58Z</time>
      </trkpt>
      <trkpt lat="48.49896" lon="-4.77888">
        <ele>4</ele>
        <time>2007-03-21T11:19:30Z</time>
      </trkpt>
      <trkpt lat="48.49895" lon="-4.77901">
        <ele>4</ele>
        <time>2007-03-21T11:19:52Z</time>
      </trkpt>
      <trkpt lat="48.49879" lon="-4.77909">
        <ele>6</ele>
        <time>2007-03-21T11:22:13Z</time>
      </trkpt>
      <trkpt lat="48.4986" lon="-4.77919">
        <ele>7</ele>
        <time>2007-03-21T11:22:40Z</time>
      </trkpt>
      <trkpt lat="48.49834" lon="-4.7795">
        <ele>8</ele>
        <time>2007-03-21T11:23:06Z</time>
      </trkpt>
      <trkpt lat="48.49826" lon="-4.77955">
        <ele>8</ele>
        <time>2007-03-21T11:23:31Z</time>
      </trkpt>
      <trkpt lat="48.49802" lon="-4.77951">
        <ele>9</ele>
        <time>2007-03-21T11:24:17Z</time>
      </trkpt>
      <trkpt lat="48.49767" lon="-4.77944">
        <ele>11</ele>
        <time>2007-03-21T11:24:50Z</time>
      </trkpt>
      <trkpt lat="48.49724" lon="-4.77875">
        <ele>10</ele>
        <time>2007-03-21T11:25:36Z</time>
      </trkpt>
      <trkpt lat="48.49719" lon="-4.77865">
        <ele>10</ele>
        <time>2007-03-21T11:26:00Z</time>
      </trkpt>
      <trkpt lat="48.49713" lon="-4.77841">
        <ele>11</ele>
        <time>2007-03-21T11:26:23Z</time>
      </trkpt>
      <trkpt lat="48.49673" lon="-4.77771">
        <ele>12</ele>
        <time>2007-03-21T11:27:28Z</time>
      </trkpt>
      <trkpt lat="48.49659" lon="-4.77741">
        <ele>14</ele>
        <time>2007-03-21T11:27:55Z</time>
      </trkpt>
      <trkpt lat="48.4961" lon="-4.77705">
        <ele>12</ele>
        <time>2007-03-21T11:28:35Z</time>
      </trkpt>
      <trkpt lat="48.49593" lon="-4.77699">
        <ele>11</ele>
        <time>2007-03-21T11:28:48Z</time>
      </trkpt>
      <trkpt lat="48.49543" lon="-4.77672">
        <ele>10</ele>
        <time>2007-03-21T11:29:29Z</time>
      </trkpt>
      <trkpt lat="48.49522" lon="-4.77666">
        <ele>10</ele>
        <time>2007-03-21T11:29:45Z</time>
      </trkpt>
      <trkpt lat="48.4947" lon="-4.77682">
        <ele>8</ele>
        <time>2007-03-21T11:30:25Z</time>
      </trkpt>
      <trkpt lat="48.49431" lon="-4.77673">
        <ele>8</ele>
        <time>2007-03-21T11:31:05Z</time>
      </trkpt>
      <trkpt lat="48.49423" lon="-4.77637">
        <ele>9</ele>
        <time>2007-03-21T11:31:32Z</time>
      </trkpt>
      <trkpt lat="48.4942" lon="-4.77614">
        <ele>9</ele>
        <time>2007-03-21T11:31:52Z</time>
      </trkpt>
      <trkpt lat="48.49409" lon="-4.77594">
        <ele>9</ele>
        <time>2007-03-21T11:32:23Z</time>
      </trkpt>
      <trkpt lat="48.49389" lon="-4.77566">
        <ele>10</ele>
        <time>2007-03-21T11:32:50Z</time>
      </trkpt>
      <trkpt lat="48.49392" lon="-4.77516">
        <ele>8</ele>
        <time>2007-03-21T11:33:21Z</time>
      </trkpt>
      <trkpt lat="48.49394" lon="-4.77503">
        <ele>8</ele>
        <time>2007-03-21T11:33:32Z</time>
      </trkpt>
      <trkpt lat="48.4939" lon="-4.77497">
        <ele>8</ele>
        <time>2007-03-21T11:33:50Z</time>
      </trkpt>
      <trkpt lat="48.49388" lon="-4.7749">
        <ele>8</ele>
        <time>2007-03-21T11:34:20Z</time>
      </trkpt>
      <trkpt lat="48.49379" lon="-4.775">
        <ele>8</ele>
        <time>2007-03-21T11:34:31Z</time>
      </trkpt>
      <trkpt lat="48.49358" lon="-4.77497">
        <ele>7</ele>
        <time>2007-03-21T11:34:55Z</time>
      </trkpt>
      <trkpt lat="48.49331" lon="-4.77471">
        <ele>7</ele>
        <time>2007-03-21T11:35:24Z</time>
      </trkpt>
      <trkpt lat="48.4932" lon="-4.77464">
        <ele>7</ele>
        <time>2007-03-21T11:35:48Z</time>
      </trkpt>
      <trkpt lat="48.49303" lon="-4.77434">
        <ele>8</ele>
        <time>2007-03-21T11:37:02Z</time>
      </trkpt>
      <trkpt lat="48.49285" lon="-4.77438">
        <ele>8</ele>
        <time>2007-03-21T11:37:28Z</time>
      </trkpt>
      <trkpt lat="48.49277" lon="-4.77443">
        <ele>7</ele>
        <time>2007-03-21T11:37:55Z</time>
      </trkpt>
      <trkpt lat="48.4926" lon="-4.77447">
        <ele>7</ele>
        <time>2007-03-21T11:38:17Z</time>
      </trkpt>
      <trkpt lat="48.49248" lon="-4.77449">
        <ele>7</ele>
        <time>2007-03-21T11:38:51Z</time>
      </trkpt>
      <trkpt lat="48.49213" lon="-4.77453">
        <ele>7</ele>
        <time>2007-03-21T11:39:27Z</time>
      </trkpt>
      <trkpt lat="48.49158" lon="-4.77452">
        <ele>9</ele>
        <time>2007-03-21T11:40:11Z</time>
      </trkpt>
      <trkpt lat="48.49123" lon="-4.77454">
        <ele>10</ele>
        <time>2007-03-21T11:41:02Z</time>
      </trkpt>
      <trkpt lat="48.49091" lon="-4.77465">
        <ele>12</ele>
        <time>2007-03-21T11:41:39Z</time>
      </trkpt>
      <trkpt lat="48.49064" lon="-4.77469">
        <ele>13</ele>
        <time>2007-03-21T11:43:12Z</time>
      </trkpt>
      <trkpt lat="48.49024" lon="-4.77486">
        <ele>13</ele>
        <time>2007-03-21T11:43:52Z</time>
      </trkpt>
      <trkpt lat="48.49013" lon="-4.77486">
        <ele>13</ele>
        <time>2007-03-21T11:44:11Z</time>
      </trkpt>
      <trkpt lat="48.49009" lon="-4.77485">
        <ele>13</ele>
        <time>2007-03-21T11:44:44Z</time>
      </trkpt>
      <trkpt lat="48.48988" lon="-4.77479">
        <ele>13</ele>
        <time>2007-03-21T11:46:36Z</time>
      </trkpt>
      <trkpt lat="48.4898" lon="-4.77482">
        <ele>13</ele>
        <time>2007-03-21T11:47:06Z</time>
      </trkpt>
      <trkpt lat="48.48946" lon="-4.77526">
        <ele>9</ele>
        <time>2007-03-21T11:47:47Z</time>
      </trkpt>
      <trkpt lat="48.48924" lon="-4.77557">
        <ele>7</ele>
        <time>2007-03-21T11:48:20Z</time>
      </trkpt>
      <trkpt lat="48.48918" lon="-4.77566">
        <ele>7</ele>
        <time>2007-03-21T11:48:48Z</time>
      </trkpt>
      <trkpt lat="48.48908" lon="-4.77558">
        <ele>9</ele>
        <time>2007-03-21T11:52:16Z</time>
      </trkpt>
      <trkpt lat="48.48888" lon="-4.77545">
        <ele>10</ele>
        <time>2007-03-21T11:52:57Z</time>
      </trkpt>
      <trkpt lat="48.48887" lon="-4.77547">
        <ele>10</ele>
        <time>2007-03-21T11:53:38Z</time>
      </trkpt>
      <trkpt lat="48.48867" lon="-4.77519">
        <ele>11</ele>
        <time>2007-03-21T11:54:04Z</time>
      </trkpt>
      <trkpt lat="48.48837" lon="-4.77477">
        <ele>10</ele>
        <time>2007-03-21T11:54:45Z</time>
      </trkpt>
      <trkpt lat="48.48812" lon="-4.77453">
        <ele>9</ele>
        <time>2007-03-21T11:55:12Z</time>
      </trkpt>
      <trkpt lat="48.48803" lon="-4.77427">
        <ele>9</ele>
        <time>2007-03-21T11:55:37Z</time>
      </trkpt>
      <trkpt lat="48.48797" lon="-4.77396">
        <ele>8</ele>
        <time>2007-03-21T11:56:18Z</time>
      </trkpt>
      <trkpt lat="48.48776" lon="-4.77321">
        <ele>8</ele>
        <time>2007-03-21T11:57:04Z</time>
      </trkpt>
      <trkpt lat="48.48771" lon="-4.77269">
        <ele>8</ele>
        <time>2007-03-21T11:57:37Z</time>
      </trkpt>
      <trkpt lat="48.48769" lon="-4.77236">
        <ele>8</ele>
        <time>2007-03-21T11:57:57Z</time>
      </trkpt>
      <trkpt lat="48.48758" lon="-4.77197">
        <ele>8</ele>
        <time>2007-03-21T11:58:22Z</time>
      </trkpt>
      <trkpt lat="48.4871" lon="-4.77147">
        <ele>7</ele>
        <time>2007-03-21T11:59:12Z</time>
      </trkpt>
      <trkpt lat="48.48662" lon="-4.77127">
        <ele>8</ele>
        <time>2007-03-21T11:59:52Z</time>
      </trkpt>
      <trkpt lat="48.48645" lon="-4.77121">
        <ele>8</ele>
        <time>2007-03-21T12:00:07Z</time>
      </trkpt>
      <trkpt lat="48.48564" lon="-4.77118">
        <ele>7</ele>
        <time>2007-03-21T12:01:03Z</time>
      </trkpt>
      <trkpt lat="48.48482" lon="-4.77106">
        <ele>6</ele>
        <time>2007-03-21T12:02:12Z</time>
      </trkpt>
      <trkpt lat="48.48459" lon="-4.771">
        <ele>6</ele>
        <time>2007-03-21T12:02:31Z</time>
      </trkpt>
      <trkpt lat="48.48439" lon="-4.77093">
        <ele>5</ele>
        <time>2007-03-21T12:02:50Z</time>
      </trkpt>
      <trkpt lat="48.48418" lon="-4.77087">
        <ele>5</ele>
        <time>2007-03-21T12:03:05Z</time>
      </trkpt>
      <trkpt lat="48.48385" lon="-4.77077">
        <ele>6</ele>
        <time>2007-03-21T12:03:31Z</time>
      </trkpt>
      <trkpt lat="48.48343" lon="-4.77054">
        <ele>8</ele>
        <time>2007-03-21T12:04:05Z</time>
      </trkpt>
      <trkpt lat="48.48312" lon="-4.77034">
        <ele>8</ele>
        <time>2007-03-21T12:04:30Z</time>
      </trkpt>
      <trkpt lat="48.48297" lon="-4.77017">
        <ele>8</ele>
        <time>2007-03-21T12:04:47Z</time>
      </trkpt>
      <trkpt lat="48.48283" lon="-4.77028">
        <ele>7</ele>
        <time>2007-03-21T12:05:12Z</time>
      </trkpt>
      <trkpt lat="48.48288" lon="-4.77008">
        <ele>8</ele>
        <time>2007-03-21T12:06:39Z</time>
      </trkpt>
      <trkpt lat="48.48294" lon="-4.76969">
        <ele>9</ele>
        <time>2007-03-21T12:07:37Z</time>
      </trkpt>
      <trkpt lat="48.48284" lon="-4.76889">
        <ele>10</ele>
        <time>2007-03-21T12:08:19Z</time>
      </trkpt>
      <trkpt lat="48.48267" lon="-4.76858">
        <ele>11</ele>
        <time>2007-03-21T12:08:50Z</time>
      </trkpt>
      <trkpt lat="48.48258" lon="-4.76844">
        <ele>11</ele>
        <time>2007-03-21T12:09:14Z</time>
      </trkpt>
      <trkpt lat="48.48218" lon="-4.76813">
        <ele>11</ele>
        <time>2007-03-21T12:09:50Z</time>
      </trkpt>
      <trkpt lat="48.48194" lon="-4.76791">
        <ele>11</ele>
        <time>2007-03-21T12:10:21Z</time>
      </trkpt>
      <trkpt lat="48.48173" lon="-4.76773">
        <ele>12</ele>
        <time>2007-03-21T12:10:46Z</time>
      </trkpt>
      <trkpt lat="48.48128" lon="-4.76712">
        <ele>13</ele>
        <time>2007-03-21T12:11:30Z</time>
      </trkpt>
      <trkpt lat="48.48076" lon="-4.76667">
        <ele>12</ele>
        <time>2007-03-21T12:12:19Z</time>
      </trkpt>
      <trkpt lat="48.48023" lon="-4.76664">
        <ele>8</ele>
        <time>2007-03-21T12:13:07Z</time>
      </trkpt>
      <trkpt lat="48.48021" lon="-4.76663">
        <ele>8</ele>
        <time>2007-03-21T12:13:28Z</time>
      </trkpt>
      <trkpt lat="48.48004" lon="-4.76703">
        <ele>5</ele>
        <time>2007-03-21T12:14:20Z</time>
      </trkpt>
      <trkpt lat="48.47969" lon="-4.76824">
        <ele>2</ele>
        <time>2007-03-21T12:15:34Z</time>
      </trkpt>
      <trkpt lat="48.4794" lon="-4.76876">
        <ele>4</ele>
        <time>2007-03-21T12:16:10Z</time>
      </trkpt>
      <trkpt lat="48.47919" lon="-4.7693">
        <ele>5</ele>
        <time>2007-03-21T12:16:51Z</time>
      </trkpt>
      <trkpt lat="48.47917" lon="-4.7693">
        <ele>5</ele>
        <time>2007-03-21T12:17:24Z</time>
      </trkpt>
      <trkpt lat="48.4792" lon="-4.76915">
        <ele>5</ele>
        <time>2007-03-21T12:17:39Z</time>
      </trkpt>
      <trkpt lat="48.47925" lon="-4.76899">
        <ele>5</ele>
        <time>2007-03-21T12:17:54Z</time>
      </trkpt>
      <trkpt lat="48.4791" lon="-4.76889">
        <ele>5</ele>
        <time>2007-03-21T12:18:06Z</time>
      </trkpt>
      <trkpt lat="48.47882" lon="-4.76874">
        <ele>6</ele>
        <time>2007-03-21T12:18:39Z</time>
      </trkpt>
      <trkpt lat="48.47873" lon="-4.76835">
        <ele>7</ele>
        <time>2007-03-21T12:19:09Z</time>
      </trkpt>
      <trkpt lat="48.47846" lon="-4.76778">
        <ele>9</ele>
        <time>2007-03-21T12:19:45Z</time>
      </trkpt>
      <trkpt lat="48.47833" lon="-4.76743">
        <ele>9</ele>
        <time>2007-03-21T12:20:13Z</time>
      </trkpt>
      <trkpt lat="48.47823" lon="-4.76732">
        <ele>9</ele>
        <time>2007-03-21T12:20:38Z</time>
      </trkpt>
      <trkpt lat="48.4781" lon="-4.76746">
        <ele>8</ele>
        <time>2007-03-21T12:21:01Z</time>
      </trkpt>
      <trkpt lat="48.4781" lon="-4.76712">
        <ele>9</ele>
        <time>2007-03-21T12:21:40Z</time>
      </trkpt>
      <trkpt lat="48.47804" lon="-4.76704">
        <ele>9</ele>
        <time>2007-03-21T12:22:02Z</time>
      </trkpt>
      <trkpt lat="48.47767" lon="-4.76712">
        <ele>7</ele>
        <time>2007-03-21T12:22:33Z</time>
      </trkpt>
      <trkpt lat="48.47746" lon="-4.76716">
        <ele>8</ele>
        <time>2007-03-21T12:22:58Z</time>
      </trkpt>
      <trkpt lat="48.47743" lon="-4.76714">
        <ele>9</ele>
        <time>2007-03-21T12:23:25Z</time>
      </trkpt>
      <trkpt lat="48.47646" lon="-4.76744">
        <ele>10</ele>
        <time>2007-03-21T12:28:15Z</time>
      </trkpt>
      <trkpt lat="48.47634" lon="-4.76747">
        <ele>10</ele>
        <time>2007-03-21T12:28:52Z</time>
      </trkpt>
      <trkpt lat="48.4761" lon="-4.76725">
        <ele>12</ele>
        <time>2007-03-21T12:29:20Z</time>
      </trkpt>
      <trkpt lat="48.47608" lon="-4.7671">
        <ele>13</ele>
        <time>2007-03-21T12:30:02Z</time>
      </trkpt>
      <trkpt lat="48.47598" lon="-4.76684">
        <ele>13</ele>
        <time>2007-03-21T12:30:28Z</time>
      </trkpt>
      <trkpt lat="48.47588" lon="-4.76673">
        <ele>13</ele>
        <time>2007-03-21T12:30:49Z</time>
      </trkpt>
      <trkpt lat="48.47586" lon="-4.76671">
        <ele>13</ele>
        <time>2007-03-21T12:31:17Z</time>
      </trkpt>
      <trkpt lat="48.47579" lon="-4.76653">
        <ele>13</ele>
        <time>2007-03-21T12:31:50Z</time>
      </trkpt>
      <trkpt lat="48.47574" lon="-4.76627">
        <ele>13</ele>
        <time>2007-03-21T12:32:12Z</time>
      </trkpt>
      <trkpt lat="48.47566" lon="-4.76545">
        <ele>13</ele>
        <time>2007-03-21T12:32:52Z</time>
      </trkpt>
      <trkpt lat="48.47534" lon="-4.76443">
        <ele>14</ele>
        <time>2007-03-21T12:33:48Z</time>
      </trkpt>
      <trkpt lat="48.47488" lon="-4.76403">
        <ele>11</ele>
        <time>2007-03-21T12:34:30Z</time>
      </trkpt>
      <trkpt lat="48.47488" lon="-4.76393">
        <ele>12</ele>
        <time>2007-03-21T12:34:45Z</time>
      </trkpt>
      <trkpt lat="48.47481" lon="-4.76404">
        <ele>11</ele>
        <time>2007-03-21T12:35:24Z</time>
      </trkpt>
      <trkpt lat="48.47446" lon="-4.76407">
        <ele>9</ele>
        <time>2007-03-21T12:35:51Z</time>
      </trkpt>
      <trkpt lat="48.47412" lon="-4.7638">
        <ele>9</ele>
        <time>2007-03-21T12:36:30Z</time>
      </trkpt>
      <trkpt lat="48.47386" lon="-4.76351">
        <ele>9</ele>
        <time>2007-03-21T12:37:02Z</time>
      </trkpt>
      <trkpt lat="48.4737" lon="-4.76326">
        <ele>9</ele>
        <time>2007-03-21T12:37:31Z</time>
      </trkpt>
      <trkpt lat="48.47343" lon="-4.76316">
        <ele>8</ele>
        <time>2007-03-21T12:39:25Z</time>
      </trkpt>
      <trkpt lat="48.47291" lon="-4.76337">
        <ele>7</ele>
        <time>2007-03-21T12:40:03Z</time>
      </trkpt>
      <trkpt lat="48.4724" lon="-4.76328">
        <ele>9</ele>
        <time>2007-03-21T12:40:46Z</time>
      </trkpt>
      <trkpt lat="48.47221" lon="-4.76268">
        <ele>10</ele>
        <time>2007-03-21T12:41:22Z</time>
      </trkpt>
      <trkpt lat="48.4721" lon="-4.76242">
        <ele>10</ele>
        <time>2007-03-21T12:41:50Z</time>
      </trkpt>
      <trkpt lat="48.47203" lon="-4.76201">
        <ele>10</ele>
        <time>2007-03-21T12:42:47Z</time>
      </trkpt>
      <trkpt lat="48.4718" lon="-4.76147">
        <ele>10</ele>
        <time>2007-03-21T12:43:25Z</time>
      </trkpt>
      <trkpt lat="48.4716" lon="-4.761">
        <ele>10</ele>
        <time>2007-03-21T12:44:07Z</time>
      </trkpt>
      <trkpt lat="48.47142" lon="-4.76067">
        <ele>11</ele>
        <time>2007-03-21T12:44:32Z</time>
      </trkpt>
      <trkpt lat="48.47109" lon="-4.76028">
        <ele>11</ele>
        <time>2007-03-21T12:45:12Z</time>
      </trkpt>
      <trkpt lat="48.47075" lon="-4.75978">
        <ele>10</ele>
        <time>2007-03-21T12:45:55Z</time>
      </trkpt>
      <trkpt lat="48.47055" lon="-4.7592">
        <ele>9</ele>
        <time>2007-03-21T12:46:35Z</time>
      </trkpt>
      <trkpt lat="48.4706" lon="-4.75897">
        <ele>10</ele>
        <time>2007-03-21T12:46:58Z</time>
      </trkpt>
      <trkpt lat="48.47067" lon="-4.75841">
        <ele>11</ele>
        <time>2007-03-21T12:47:30Z</time>
      </trkpt>
      <trkpt lat="48.47056" lon="-4.75746">
        <ele>8</ele>
        <time>2007-03-21T12:48:23Z</time>
      </trkpt>
      <trkpt lat="48.4706" lon="-4.75691">
        <ele>4</ele>
        <time>2007-03-21T12:49:03Z</time>
      </trkpt>
      <trkpt lat="48.47063" lon="-4.7568">
        <ele>4</ele>
        <time>2007-03-21T12:49:34Z</time>
      </trkpt>
      <trkpt lat="48.47092" lon="-4.75625">
        <ele>3</ele>
        <time>2007-03-21T12:50:11Z</time>
      </trkpt>
      <trkpt lat="48.47104" lon="-4.7561">
        <ele>3</ele>
        <time>2007-03-21T12:50:38Z</time>
      </trkpt>
      <trkpt lat="48.47119" lon="-4.75583">
        <ele>1</ele>
        <time>2007-03-21T12:51:07Z</time>
      </trkpt>
      <trkpt lat="48.47121" lon="-4.75576">
        <ele>3.74</ele>
        <time>2007-03-21T12:51:38Z</time>
      </trkpt>
      <trkpt lat="48.47133" lon="-4.75572">
        <ele>5.87</ele>
        <time>2007-03-21T12:52:18Z</time>
      </trkpt>
      <trkpt lat="48.4714" lon="-4.75562">
        <ele>2.3</ele>
        <time>2007-03-21T12:52:51Z</time>
      </trkpt>
      <trkpt lat="48.47149" lon="-4.75565">
        <ele>1</ele>
        <time>2007-03-21T12:53:13Z</time>
      </trkpt>
      <trkpt lat="48.47158" lon="-4.75577">
        <ele>1</ele>
        <time>2007-03-21T12:53:35Z</time>
      </trkpt>
      <trkpt lat="48.47165" lon="-4.75573">
        <ele>1</ele>
        <time>2007-03-21T12:54:02Z</time>
      </trkpt>
      <trkpt lat="48.47187" lon="-4.7558">
        <ele>2</ele>
        <time>2007-03-21T12:54:44Z</time>
      </trkpt>
      <trkpt lat="48.47207" lon="-4.75586">
        <ele>2</ele>
        <time>2007-03-21T12:55:24Z</time>
      </trkpt>
      <trkpt lat="48.47211" lon="-4.75561">
        <ele>2</ele>
        <time>2007-03-21T12:55:44Z</time>
      </trkpt>
      <trkpt lat="48.47222" lon="-4.75552">
        <ele>3</ele>
        <time>2007-03-21T12:56:06Z</time>
      </trkpt>
      <trkpt lat="48.47241" lon="-4.75576">
        <ele>4</ele>
        <time>2007-03-21T12:58:11Z</time>
      </trkpt>
      <trkpt lat="48.4726" lon="-4.75599">
        <ele>6</ele>
        <time>2007-03-21T12:58:44Z</time>
      </trkpt>
      <trkpt lat="48.47287" lon="-4.75615">
        <ele>8</ele>
        <time>2007-03-21T12:59:38Z</time>
      </trkpt>
      <trkpt lat="48.47304" lon="-4.7562">
        <ele>10</ele>
        <time>2007-03-21T13:00:07Z</time>
      </trkpt>
      <trkpt lat="48.47339" lon="-4.75634">
        <ele>12</ele>
        <time>2007-03-21T13:00:43Z</time>
      </trkpt>
      <trkpt lat="48.47358" lon="-4.75627">
        <ele>14</ele>
        <time>2007-03-21T13:00:52Z</time>
      </trkpt>
      <trkpt lat="48.47353" lon="-4.7561">
        <ele>15</ele>
        <time>2007-03-21T13:01:03Z</time>
      </trkpt>
      <trkpt lat="48.47332" lon="-4.75571">
        <ele>15</ele>
        <time>2007-03-21T13:01:36Z</time>
      </trkpt>
      <trkpt lat="48.47331" lon="-4.75539">
        <ele>15</ele>
        <time>2007-03-21T13:01:56Z</time>
      </trkpt>
      <trkpt lat="48.47357" lon="-4.75507">
        <ele>17</ele>
        <time>2007-03-21T13:02:22Z</time>
      </trkpt>
      <trkpt lat="48.4739" lon="-4.75498">
        <ele>19</ele>
        <time>2007-03-21T13:02:48Z</time>
      </trkpt>
      <trkpt lat="48.47439" lon="-4.75488">
        <ele>20</ele>
        <time>2007-03-21T13:03:22Z</time>
      </trkpt>
      <trkpt lat="48.47481" lon="-4.75487">
        <ele>22</ele>
        <time>2007-03-21T13:03:54Z</time>
      </trkpt>
      <trkpt lat="48.47526" lon="-4.75497">
        <ele>26</ele>
        <time>2007-03-21T13:04:29Z</time>
      </trkpt>
      <trkpt lat="48.47538" lon="-4.75504">
        <ele>26</ele>
        <time>2007-03-21T13:04:57Z</time>
      </trkpt>
      <trkpt lat="48.47554" lon="-4.75538">
        <ele>28</ele>
        <time>2007-03-21T13:05:29Z</time>
      </trkpt>
      <trkpt lat="48.47563" lon="-4.75544">
        <ele>28</ele>
        <time>2007-03-21T13:06:10Z</time>
      </trkpt>
      <trkpt lat="48.47598" lon="-4.75543">
        <ele>30</ele>
        <time>2007-03-21T13:06:36Z</time>
      </trkpt>
      <trkpt lat="48.47615" lon="-4.75507">
        <ele>30</ele>
        <time>2007-03-21T13:07:05Z</time>
      </trkpt>
      <trkpt lat="48.47601" lon="-4.75469">
        <ele>28</ele>
        <time>2007-03-21T13:07:28Z</time>
      </trkpt>
      <trkpt lat="48.47584" lon="-4.75426">
        <ele>26</ele>
        <time>2007-03-21T13:07:53Z</time>
      </trkpt>
      <trkpt lat="48.47585" lon="-4.75393">
        <ele>25</ele>
        <time>2007-03-21T13:08:24Z</time>
      </trkpt>
      <trkpt lat="48.47588" lon="-4.75368">
        <ele>24</ele>
        <time>2007-03-21T13:08:46Z</time>
      </trkpt>
      <trkpt lat="48.47607" lon="-4.75304">
        <ele>19</ele>
        <time>2007-03-21T13:09:29Z</time>
      </trkpt>
      <trkpt lat="48.47626" lon="-4.75249">
        <ele>12</ele>
        <time>2007-03-21T13:10:03Z</time>
      </trkpt>
      <trkpt lat="48.47624" lon="-4.75232">
        <ele>10</ele>
        <time>2007-03-21T13:10:10Z</time>
      </trkpt>
      <trkpt lat="48.47611" lon="-4.75183">
        <ele>10</ele>
        <time>2007-03-21T13:10:36Z</time>
      </trkpt>
      <trkpt lat="48.47612" lon="-4.7517">
        <ele>10</ele>
        <time>2007-03-21T13:10:43Z</time>
      </trkpt>
      <trkpt lat="48.47614" lon="-4.75151">
        <ele>9</ele>
        <time>2007-03-21T13:10:52Z</time>
      </trkpt>
      <trkpt lat="48.47618" lon="-4.75129">
        <ele>7</ele>
        <time>2007-03-21T13:11:13Z</time>
      </trkpt>
      <trkpt lat="48.47618" lon="-4.75128">
        <ele>7</ele>
        <time>2007-03-21T13:11:37Z</time>
      </trkpt>
      <trkpt lat="48.47638" lon="-4.75059">
        <ele>11</ele>
        <time>2007-03-21T13:12:31Z</time>
      </trkpt>
      <trkpt lat="48.47642" lon="-4.75063">
        <ele>11</ele>
        <time>2007-03-21T13:12:45Z</time>
      </trkpt>
      <trkpt lat="48.47643" lon="-4.75048">
        <ele>13</ele>
        <time>2007-03-21T13:12:54Z</time>
      </trkpt>
      <trkpt lat="48.47634" lon="-4.75014">
        <ele>16</ele>
        <time>2007-03-21T13:13:14Z</time>
      </trkpt>
      <trkpt lat="48.47624" lon="-4.74999">
        <ele>16</ele>
        <time>2007-03-21T13:13:36Z</time>
      </trkpt>
      <trkpt lat="48.47599" lon="-4.74969">
        <ele>17</ele>
        <time>2007-03-21T13:14:06Z</time>
      </trkpt>
      <trkpt lat="48.47589" lon="-4.74959">
        <ele>18</ele>
        <time>2007-03-21T13:14:36Z</time>
      </trkpt>
      <trkpt lat="48.47568" lon="-4.74925">
        <ele>19</ele>
        <time>2007-03-21T13:15:02Z</time>
      </trkpt>
      <trkpt lat="48.47529" lon="-4.74878">
        <ele>21</ele>
        <time>2007-03-21T13:15:36Z</time>
      </trkpt>
      <trkpt lat="48.47519" lon="-4.7485">
        <ele>22</ele>
        <time>2007-03-21T13:16:46Z</time>
      </trkpt>
      <trkpt lat="48.47504" lon="-4.74829">
        <ele>23</ele>
        <time>2007-03-21T13:17:33Z</time>
      </trkpt>
      <trkpt lat="48.47483" lon="-4.74797">
        <ele>23</ele>
        <time>2007-03-21T13:18:03Z</time>
      </trkpt>
      <trkpt lat="48.47438" lon="-4.74743">
        <ele>22</ele>
        <time>2007-03-21T13:19:11Z</time>
      </trkpt>
      <trkpt lat="48.47419" lon="-4.74681">
        <ele>21</ele>
        <time>2007-03-21T13:20:02Z</time>
      </trkpt>
      <trkpt lat="48.47396" lon="-4.74595">
        <ele>18</ele>
        <time>2007-03-21T13:20:45Z</time>
      </trkpt>
      <trkpt lat="48.47396" lon="-4.7457">
        <ele>17</ele>
        <time>2007-03-21T13:21:07Z</time>
      </trkpt>
      <trkpt lat="48.47383" lon="-4.74568">
        <ele>16</ele>
        <time>2007-03-21T13:21:29Z</time>
      </trkpt>
      <trkpt lat="48.47376" lon="-4.74558">
        <ele>15</ele>
        <time>2007-03-21T13:22:18Z</time>
      </trkpt>
      <trkpt lat="48.47385" lon="-4.74499">
        <ele>14</ele>
        <time>2007-03-21T13:22:45Z</time>
      </trkpt>
      <trkpt lat="48.47387" lon="-4.74468">
        <ele>14</ele>
        <time>2007-03-21T13:23:06Z</time>
      </trkpt>
      <trkpt lat="48.47387" lon="-4.7445">
        <ele>14</ele>
        <time>2007-03-21T13:23:31Z</time>
      </trkpt>
      <trkpt lat="48.47391" lon="-4.7444">
        <ele>14</ele>
        <time>2007-03-21T13:24:11Z</time>
      </trkpt>
      <trkpt lat="48.4741" lon="-4.74403">
        <ele>16</ele>
        <time>2007-03-21T13:24:51Z</time>
      </trkpt>
      <trkpt lat="48.47401" lon="-4.74394">
        <ele>15</ele>
        <time>2007-03-21T13:25:28Z</time>
      </trkpt>
      <trkpt lat="48.47402" lon="-4.74364">
        <ele>15</ele>
        <time>2007-03-21T13:26:31Z</time>
      </trkpt>
      <trkpt lat="48.47374" lon="-4.74357">
        <ele>14</ele>
        <time>2007-03-21T13:27:14Z</time>
      </trkpt>
      <trkpt lat="48.4737" lon="-4.74357">
        <ele>14</ele>
        <time>2007-03-21T13:27:26Z</time>
      </trkpt>
      <trkpt lat="48.47371" lon="-4.74336">
        <ele>14</ele>
        <time>2007-03-21T13:27:40Z</time>
      </trkpt>
      <trkpt lat="48.47347" lon="-4.74318">
        <ele>12</ele>
        <time>2007-03-21T13:28:03Z</time>
      </trkpt>
      <trkpt lat="48.47333" lon="-4.74311">
        <ele>11</ele>
        <time>2007-03-21T13:28:19Z</time>
      </trkpt>
      <trkpt lat="48.47316" lon="-4.743">
        <ele>10</ele>
        <time>2007-03-21T13:28:39Z</time>
      </trkpt>
      <trkpt lat="48.47307" lon="-4.74296">
        <ele>9</ele>
        <time>2007-03-21T13:28:56Z</time>
      </trkpt>
      <trkpt lat="48.47308" lon="-4.74319">
        <ele>9</ele>
        <time>2007-03-21T13:38:07Z</time>
      </trkpt>
      <trkpt lat="48.47309" lon="-4.74305">
        <ele>9</ele>
        <time>2007-03-21T13:38:31Z</time>
      </trkpt>
      <trkpt lat="48.47305" lon="-4.74262">
        <ele>10</ele>
        <time>2007-03-21T13:38:57Z</time>
      </trkpt>
      <trkpt lat="48.47302" lon="-4.74229">
        <ele>10</ele>
        <time>2007-03-21T13:39:28Z</time>
      </trkpt>
      <trkpt lat="48.47293" lon="-4.74184">
        <ele>10</ele>
        <time>2007-03-21T13:39:57Z</time>
      </trkpt>
      <trkpt lat="48.47279" lon="-4.74155">
        <ele>8</ele>
        <time>2007-03-21T13:40:21Z</time>
      </trkpt>
      <trkpt lat="48.47277" lon="-4.74109">
        <ele>5</ele>
        <time>2007-03-21T13:40:47Z</time>
      </trkpt>
      <trkpt lat="48.47278" lon="-4.74101">
        <ele>5</ele>
        <time>2007-03-21T13:41:18Z</time>
      </trkpt>
      <trkpt lat="48.47283" lon="-4.74077">
        <ele>3</ele>
        <time>2007-03-21T13:41:29Z</time>
      </trkpt>
      <trkpt lat="48.47287" lon="-4.74068">
        <ele>3</ele>
        <time>2007-03-21T13:42:03Z</time>
      </trkpt>
      <trkpt lat="48.47305" lon="-4.7404">
        <ele>2</ele>
        <time>2007-03-21T13:42:51Z</time>
      </trkpt>
      <trkpt lat="48.4732" lon="-4.74043">
        <ele>4</ele>
        <time>2007-03-21T13:43:03Z</time>
      </trkpt>
      <trkpt lat="48.47342" lon="-4.74062">
        <ele>7</ele>
        <time>2007-03-21T13:43:27Z</time>
      </trkpt>
      <trkpt lat="48.47369" lon="-4.74079">
        <ele>8</ele>
        <time>2007-03-21T13:43:56Z</time>
      </trkpt>
      <trkpt lat="48.47368" lon="-4.74062">
        <ele>8</ele>
        <time>2007-03-21T13:44:09Z</time>
      </trkpt>
      <trkpt lat="48.47345" lon="-4.7403">
        <ele>8</ele>
        <time>2007-03-21T13:44:27Z</time>
      </trkpt>
      <trkpt lat="48.47346" lon="-4.74021">
        <ele>8</ele>
        <time>2007-03-21T13:44:30Z</time>
      </trkpt>
      <trkpt lat="48.47348" lon="-4.74019">
        <ele>9</ele>
        <time>2007-03-21T13:44:37Z</time>
      </trkpt>
      <trkpt lat="48.47347" lon="-4.74002">
        <ele>9</ele>
        <time>2007-03-21T13:45:15Z</time>
      </trkpt>
      <trkpt lat="48.47343" lon="-4.73959">
        <ele>9</ele>
        <time>2007-03-21T13:45:38Z</time>
      </trkpt>
      <trkpt lat="48.47343" lon="-4.73906">
        <ele>10</ele>
        <time>2007-03-21T13:46:07Z</time>
      </trkpt>
      <trkpt lat="48.47327" lon="-4.73809">
        <ele>6</ele>
        <time>2007-03-21T13:47:02Z</time>
      </trkpt>
      <trkpt lat="48.47326" lon="-4.73789">
        <ele>4</ele>
        <time>2007-03-21T13:47:13Z</time>
      </trkpt>
      <trkpt lat="48.4731" lon="-4.73755">
        <ele>1</ele>
        <time>2007-03-21T13:47:29Z</time>
      </trkpt>
      <trkpt lat="48.47326" lon="-4.73748">
        <ele>3</ele>
        <time>2007-03-21T13:47:43Z</time>
      </trkpt>
      <trkpt lat="48.47337" lon="-4.73748">
        <ele>4</ele>
        <time>2007-03-21T13:48:14Z</time>
      </trkpt>
      <trkpt lat="48.47358" lon="-4.7374">
        <ele>7</ele>
        <time>2007-03-21T13:48:38Z</time>
      </trkpt>
      <trkpt lat="48.474" lon="-4.73713">
        <ele>6</ele>
        <time>2007-03-21T13:49:18Z</time>
      </trkpt>
      <trkpt lat="48.47421" lon="-4.73687">
        <ele>9</ele>
        <time>2007-03-21T13:49:54Z</time>
      </trkpt>
      <trkpt lat="48.47414" lon="-4.73657">
        <ele>11</ele>
        <time>2007-03-21T13:50:26Z</time>
      </trkpt>
      <trkpt lat="48.47375" lon="-4.7366">
        <ele>9</ele>
        <time>2007-03-21T13:51:01Z</time>
      </trkpt>
      <trkpt lat="48.47333" lon="-4.7367">
        <ele>7</ele>
        <time>2007-03-21T13:51:46Z</time>
      </trkpt>
      <trkpt lat="48.47339" lon="-4.73643">
        <ele>8</ele>
        <time>2007-03-21T13:55:00Z</time>
      </trkpt>
      <trkpt lat="48.47362" lon="-4.73621">
        <ele>10</ele>
        <time>2007-03-21T13:55:19Z</time>
      </trkpt>
      <trkpt lat="48.47362" lon="-4.73568">
        <ele>9</ele>
        <time>2007-03-21T13:55:55Z</time>
      </trkpt>
      <trkpt lat="48.47357" lon="-4.73544">
        <ele>8</ele>
        <time>2007-03-21T13:56:22Z</time>
      </trkpt>
      <trkpt lat="48.47362" lon="-4.73503">
        <ele>6</ele>
        <time>2007-03-21T13:56:57Z</time>
      </trkpt>
      <trkpt lat="48.47384" lon="-4.73473">
        <ele>7</ele>
        <time>2007-03-21T13:57:23Z</time>
      </trkpt>
      <trkpt lat="48.47408" lon="-4.73439">
        <ele>6</ele>
        <time>2007-03-21T13:57:53Z</time>
      </trkpt>
      <trkpt lat="48.47409" lon="-4.73438">
        <ele>6</ele>
        <time>2007-03-21T13:58:20Z</time>
      </trkpt>
      <trkpt lat="48.47417" lon="-4.73413">
        <ele>5</ele>
        <time>2007-03-21T13:59:17Z</time>
      </trkpt>
      <trkpt lat="48.4746" lon="-4.73354">
        <ele>8</ele>
        <time>2007-03-21T14:00:30Z</time>
      </trkpt>
      <trkpt lat="48.47479" lon="-4.73314">
        <ele>11</ele>
        <time>2007-03-21T14:00:59Z</time>
      </trkpt>
      <trkpt lat="48.47478" lon="-4.73252">
        <ele>9</ele>
        <time>2007-03-21T14:01:35Z</time>
      </trkpt>
      <trkpt lat="48.47473" lon="-4.7321">
        <ele>6</ele>
        <time>2007-03-21T14:02:07Z</time>
      </trkpt>
      <trkpt lat="48.47473" lon="-4.73176">
        <ele>5</ele>
        <time>2007-03-21T14:02:30Z</time>
      </trkpt>
      <trkpt lat="48.47502" lon="-4.73124">
        <ele>8</ele>
        <time>2007-03-21T14:03:11Z</time>
      </trkpt>
      <trkpt lat="48.47499" lon="-4.73067">
        <ele>7</ele>
        <time>2007-03-21T14:04:10Z</time>
      </trkpt>
      <trkpt lat="48.47495" lon="-4.73028">
        <ele>7</ele>
        <time>2007-03-21T14:04:33Z</time>
      </trkpt>
      <trkpt lat="48.47508" lon="-4.72983">
        <ele>9</ele>
        <time>2007-03-21T14:05:02Z</time>
      </trkpt>
      <trkpt lat="48.47501" lon="-4.72956">
        <ele>10</ele>
        <time>2007-03-21T14:05:28Z</time>
      </trkpt>
      <trkpt lat="48.47479" lon="-4.7294">
        <ele>8</ele>
        <time>2007-03-21T14:05:56Z</time>
      </trkpt>
      <trkpt lat="48.47483" lon="-4.72921">
        <ele>9</ele>
        <time>2007-03-21T14:06:22Z</time>
      </trkpt>
      <trkpt lat="48.47502" lon="-4.72882">
        <ele>12</ele>
        <time>2007-03-21T14:06:46Z</time>
      </trkpt>
      <trkpt lat="48.47499" lon="-4.72841">
        <ele>12</ele>
        <time>2007-03-21T14:07:02Z</time>
      </trkpt>
      <trkpt lat="48.47501" lon="-4.72774">
        <ele>11</ele>
        <time>2007-03-21T14:07:52Z</time>
      </trkpt>
      <trkpt lat="48.47504" lon="-4.72729">
        <ele>11</ele>
        <time>2007-03-21T14:08:26Z</time>
      </trkpt>
      <trkpt lat="48.47509" lon="-4.72696">
        <ele>11</ele>
        <time>2007-03-21T14:08:58Z</time>
      </trkpt>
      <trkpt lat="48.47517" lon="-4.7263">
        <ele>8</ele>
        <time>2007-03-21T14:09:30Z</time>
      </trkpt>
      <trkpt lat="48.47522" lon="-4.7262">
        <ele>8</ele>
        <time>2007-03-21T14:09:53Z</time>
      </trkpt>
      <trkpt lat="48.47537" lon="-4.72597">
        <ele>8</ele>
        <time>2007-03-21T14:10:22Z</time>
      </trkpt>
      <trkpt lat="48.47554" lon="-4.72565">
        <ele>7</ele>
        <time>2007-03-21T14:10:45Z</time>
      </trkpt>
      <trkpt lat="48.47558" lon="-4.72555">
        <ele>7</ele>
        <time>2007-03-21T14:10:50Z</time>
      </trkpt>
      <trkpt lat="48.47574" lon="-4.72553">
        <ele>8</ele>
        <time>2007-03-21T14:11:01Z</time>
      </trkpt>
      <trkpt lat="48.47583" lon="-4.72545">
        <ele>7</ele>
        <time>2007-03-21T14:11:07Z</time>
      </trkpt>
      <trkpt lat="48.47596" lon="-4.72537">
        <ele>6</ele>
        <time>2007-03-21T14:11:20Z</time>
      </trkpt>
      <trkpt lat="48.47604" lon="-4.72502">
        <ele>5</ele>
        <time>2007-03-21T14:11:48Z</time>
      </trkpt>
      <trkpt lat="48.4759" lon="-4.72463">
        <ele>9</ele>
        <time>2007-03-21T14:12:16Z</time>
      </trkpt>
      <trkpt lat="48.47553" lon="-4.72457">
        <ele>8</ele>
        <time>2007-03-21T14:12:47Z</time>
      </trkpt>
      <trkpt lat="48.4754" lon="-4.72451">
        <ele>7</ele>
        <time>2007-03-21T14:13:15Z</time>
      </trkpt>
      <trkpt lat="48.47551" lon="-4.72426">
        <ele>8</ele>
        <time>2007-03-21T14:15:01Z</time>
      </trkpt>
      <trkpt lat="48.47555" lon="-4.72409">
        <ele>8</ele>
        <time>2007-03-21T14:15:40Z</time>
      </trkpt>
      <trkpt lat="48.47559" lon="-4.72377">
        <ele>8</ele>
        <time>2007-03-21T14:16:18Z</time>
      </trkpt>
      <trkpt lat="48.47567" lon="-4.72377">
        <ele>9</ele>
        <time>2007-03-21T14:16:28Z</time>
      </trkpt>
      <trkpt lat="48.47597" lon="-4.72356">
        <ele>12</ele>
        <time>2007-03-21T14:16:51Z</time>
      </trkpt>
      <trkpt lat="48.47611" lon="-4.72346">
        <ele>13</ele>
        <time>2007-03-21T14:17:07Z</time>
      </trkpt>
      <trkpt lat="48.47626" lon="-4.72337">
        <ele>15</ele>
        <time>2007-03-21T14:17:21Z</time>
      </trkpt>
      <trkpt lat="48.47667" lon="-4.72308">
        <ele>19</ele>
        <time>2007-03-21T14:17:59Z</time>
      </trkpt>
      <trkpt lat="48.47697" lon="-4.72311">
        <ele>21</ele>
        <time>2007-03-21T14:18:29Z</time>
      </trkpt>
      <trkpt lat="48.47694" lon="-4.72339">
        <ele>20</ele>
        <time>2007-03-21T14:18:42Z</time>
      </trkpt>
      <trkpt lat="48.47689" lon="-4.72396">
        <ele>17</ele>
        <time>2007-03-21T14:19:15Z</time>
      </trkpt>
    </trkseg>
  </trk>
</gpx>